createdAt,value
2023-02-02T00:00:55.798Z,1006.40
2023-02-02T00:01:55.769Z,1006.37
2023-02-02T00:02:55.829Z,1006.39
2023-02-02T00:03:55.862Z,1006.32
2023-02-02T00:04:55.771Z,1006.30
2023-02-02T00:05:55.748Z,1006.31
2023-02-02T00:06:55.731Z,1006.33
2023-02-02T00:07:55.720Z,1006.30
2023-02-02T00:08:55.764Z,1006.27
2023-02-02T00:09:55.726Z,1006.27
2023-02-02T00:10:55.706Z,1006.28
2023-02-02T00:11:55.681Z,1006.26
2023-02-02T00:12:55.714Z,1006.28
2023-02-02T00:13:55.645Z,1006.30
2023-02-02T00:14:55.659Z,1006.34
2023-02-02T00:15:55.680Z,1006.29
2023-02-02T00:16:55.645Z,1006.30
2023-02-02T00:17:55.620Z,1006.29
2023-02-02T00:18:55.663Z,1006.30
2023-02-02T00:19:55.660Z,1006.30
2023-02-02T00:20:55.583Z,1006.23
2023-02-02T00:21:55.601Z,1006.25
2023-02-02T00:22:55.583Z,1006.27
2023-02-02T00:23:55.553Z,1006.30
2023-02-02T00:24:55.535Z,1006.28
2023-02-02T00:25:55.524Z,1006.30
2023-02-02T00:26:55.556Z,1006.26
2023-02-02T00:27:55.542Z,1006.26
2023-02-02T00:28:55.516Z,1006.24
2023-02-02T00:29:55.479Z,1006.27
2023-02-02T00:30:55.527Z,1006.28
2023-02-02T00:31:55.495Z,1006.31
2023-02-02T00:32:55.567Z,1006.39
2023-02-02T00:33:55.450Z,1006.31
2023-02-02T00:34:55.433Z,1006.28
2023-02-02T00:35:55.431Z,1006.38
2023-02-02T00:36:55.460Z,1006.30
2023-02-02T00:37:55.403Z,1006.34
2023-02-02T00:38:55.405Z,1006.30
2023-02-02T00:39:55.374Z,1006.30
2023-02-02T00:40:55.426Z,1006.29
2023-02-02T00:41:55.412Z,1006.25
2023-02-02T00:42:55.394Z,1006.25
2023-02-02T00:43:55.335Z,1006.26
2023-02-02T00:44:55.359Z,1006.27
2023-02-02T00:45:55.402Z,1006.23
2023-02-02T00:46:55.339Z,1006.31
2023-02-02T00:47:55.347Z,1006.33
2023-02-02T00:48:55.332Z,1006.34
2023-02-02T00:49:55.323Z,1006.34
2023-02-02T00:50:55.307Z,1006.31
2023-02-02T00:51:55.286Z,1006.34
2023-02-02T00:52:55.301Z,1006.33
2023-02-02T00:53:55.250Z,1006.34
2023-02-02T00:54:55.272Z,1006.29
2023-02-02T00:55:55.218Z,1006.27
2023-02-02T00:56:55.231Z,1006.27
2023-02-02T00:57:55.215Z,1006.28
2023-02-02T00:58:55.204Z,1006.27
2023-02-02T00:59:55.185Z,1006.23
2023-02-02T01:00:55.247Z,1006.23
2023-02-02T01:01:55.208Z,1006.23
2023-02-02T01:02:55.204Z,1006.23
2023-02-02T01:03:55.157Z,1006.22
2023-02-02T01:04:55.187Z,1006.32
2023-02-02T01:05:55.126Z,1006.22
2023-02-02T01:06:55.135Z,1006.20
2023-02-02T01:07:55.161Z,1006.20
2023-02-02T01:08:55.118Z,1006.22
2023-02-02T01:09:55.084Z,1006.24
2023-02-02T01:10:55.083Z,1006.25
2023-02-02T01:11:55.069Z,1006.27
2023-02-02T01:12:55.106Z,1006.24
2023-02-02T01:13:55.095Z,1006.30
2023-02-02T01:14:55.045Z,1006.31
2023-02-02T01:15:55.065Z,1006.31
2023-02-02T01:16:55.000Z,1006.34
2023-02-02T01:17:54.979Z,1006.32
2023-02-02T01:18:55.018Z,1006.42
2023-02-02T01:19:54.986Z,1006.44
2023-02-02T01:20:54.974Z,1006.44
2023-02-02T01:21:54.974Z,1006.39
2023-02-02T01:22:54.957Z,1006.44
2023-02-02T01:23:54.965Z,1006.44
2023-02-02T01:24:54.907Z,1006.40
2023-02-02T01:25:54.946Z,1006.47
2023-02-02T01:26:54.898Z,1006.47
2023-02-02T01:27:54.901Z,1006.42
2023-02-02T01:28:54.898Z,1006.48
2023-02-02T01:29:54.904Z,1006.50
2023-02-02T01:30:54.880Z,1006.50
2023-02-02T01:31:54.893Z,1006.47
2023-02-02T01:32:54.869Z,1006.46
2023-02-02T01:33:54.848Z,1006.46
2023-02-02T01:34:54.865Z,1006.51
2023-02-02T01:35:54.827Z,1006.46
2023-02-02T01:36:54.806Z,1006.48
2023-02-02T01:37:54.803Z,1006.45
2023-02-02T01:38:54.823Z,1006.46
2023-02-02T01:39:54.814Z,1006.39
2023-02-02T01:40:54.768Z,1006.43
2023-02-02T01:41:54.763Z,1006.42
2023-02-02T01:42:54.735Z,1006.40
2023-02-02T01:43:54.766Z,1006.38
2023-02-02T01:44:54.751Z,1006.47
2023-02-02T01:45:54.758Z,1006.47
2023-02-02T01:46:54.712Z,1006.50
2023-02-02T01:47:54.723Z,1006.53
2023-02-02T01:48:54.679Z,1006.47
2023-02-02T01:49:54.684Z,1006.46
2023-02-02T01:50:54.672Z,1006.43
2023-02-02T01:51:54.669Z,1006.46
2023-02-02T01:52:55.440Z,1006.55
2023-02-02T01:53:54.668Z,1006.56
2023-02-02T01:54:54.622Z,1006.61
2023-02-02T01:55:54.636Z,1006.56
2023-02-02T01:56:54.600Z,1006.55
2023-02-02T01:57:54.613Z,1006.55
2023-02-02T01:58:54.581Z,1006.52
2023-02-02T01:59:54.593Z,1006.61
2023-02-02T02:00:54.638Z,1006.62
2023-02-02T02:01:54.564Z,1006.70
2023-02-02T02:02:54.563Z,1006.63
2023-02-02T02:03:54.534Z,1006.69
2023-02-02T02:04:54.527Z,1006.67
2023-02-02T02:05:54.601Z,1006.57
2023-02-02T02:06:54.528Z,1006.61
2023-02-02T02:07:54.495Z,1006.54
2023-02-02T02:08:54.467Z,1006.59
2023-02-02T02:09:54.480Z,1006.62
2023-02-02T02:10:54.491Z,1006.59
2023-02-02T02:11:54.471Z,1006.64
2023-02-02T02:12:54.461Z,1006.65
2023-02-02T02:13:54.441Z,1006.60
2023-02-02T02:14:54.442Z,1006.64
2023-02-02T02:15:54.428Z,1006.58
2023-02-02T02:16:54.458Z,1006.61
2023-02-02T02:17:54.432Z,1006.59
2023-02-02T02:18:54.397Z,1006.60
2023-02-02T02:19:54.380Z,1006.58
2023-02-02T02:20:54.355Z,1006.58
2023-02-02T02:21:54.360Z,1006.50
2023-02-02T02:22:54.359Z,1006.54
2023-02-02T02:23:54.345Z,1006.50
2023-02-02T02:24:54.312Z,1006.52
2023-02-02T02:25:54.354Z,1006.52
2023-02-02T02:26:54.351Z,1006.54
2023-02-02T02:27:54.303Z,1006.51
2023-02-02T02:28:54.301Z,1006.52
2023-02-02T02:29:54.282Z,1006.50
2023-02-02T02:30:54.300Z,1006.48
2023-02-02T02:31:54.264Z,1006.44
2023-02-02T02:32:54.243Z,1006.44
2023-02-02T02:33:54.251Z,1006.44
2023-02-02T02:34:54.213Z,1006.44
2023-02-02T02:35:54.221Z,1006.44
2023-02-02T02:36:54.195Z,1006.51
2023-02-02T02:37:54.212Z,1006.45
2023-02-02T02:38:54.182Z,1006.47
2023-02-02T02:39:54.227Z,1006.48
2023-02-02T02:40:54.150Z,1006.47
2023-02-02T02:41:54.148Z,1006.43
2023-02-02T02:42:54.148Z,1006.51
2023-02-02T02:43:54.133Z,1006.43
2023-02-02T02:44:54.150Z,1006.45
2023-02-02T02:45:54.147Z,1006.48
2023-02-02T02:46:54.106Z,1006.45
2023-02-02T02:47:54.082Z,1006.52
2023-02-02T02:48:54.059Z,1006.59
2023-02-02T02:49:54.095Z,1006.58
2023-02-02T02:50:54.057Z,1006.55
2023-02-02T02:51:54.029Z,1006.53
2023-02-02T02:52:54.040Z,1006.56
2023-02-02T02:53:54.044Z,1006.58
2023-02-02T02:54:54.008Z,1006.53
2023-02-02T02:55:54.097Z,1006.49
2023-02-02T02:56:53.983Z,1006.53
2023-02-02T02:57:53.984Z,1006.53
2023-02-02T02:58:54.041Z,1006.47
2023-02-02T02:59:53.963Z,1006.50
2023-02-02T03:00:53.939Z,1006.50
2023-02-02T03:01:53.962Z,1006.43
2023-02-02T03:02:53.973Z,1006.44
2023-02-02T03:03:53.947Z,1006.42
2023-02-02T03:04:53.922Z,1006.43
2023-02-02T03:05:53.912Z,1006.36
2023-02-02T03:06:53.883Z,1006.39
2023-02-02T03:07:53.903Z,1006.40
2023-02-02T03:08:53.892Z,1006.40
2023-02-02T03:09:53.870Z,1006.40
2023-02-02T03:10:53.867Z,1006.42
2023-02-02T03:11:53.854Z,1006.41
2023-02-02T03:12:53.837Z,1006.41
2023-02-02T03:13:53.845Z,1006.44
2023-02-02T03:14:53.801Z,1006.44
2023-02-02T03:15:53.820Z,1006.38
2023-02-02T03:16:53.798Z,1006.35
2023-02-02T03:17:53.805Z,1006.44
2023-02-02T03:18:53.807Z,1006.45
2023-02-02T03:19:53.771Z,1006.37
2023-02-02T03:20:53.748Z,1006.41
2023-02-02T03:21:53.750Z,1006.36
2023-02-02T03:22:53.730Z,1006.40
2023-02-02T03:23:53.736Z,1006.35
2023-02-02T03:24:53.743Z,1006.34
2023-02-02T03:25:53.717Z,1006.41
2023-02-02T03:26:53.721Z,1006.42
2023-02-02T03:27:53.693Z,1006.39
2023-02-02T03:28:53.668Z,1006.41
2023-02-02T03:29:53.687Z,1006.41
2023-02-02T03:30:53.794Z,1006.45
2023-02-02T03:31:53.672Z,1006.42
2023-02-02T03:32:53.608Z,1006.50
2023-02-02T03:33:53.619Z,1006.46
2023-02-02T03:34:53.606Z,1006.51
2023-02-02T03:35:53.614Z,1006.46
2023-02-02T03:36:53.612Z,1006.48
2023-02-02T03:37:53.578Z,1006.52
2023-02-02T03:38:53.560Z,1006.47
2023-02-02T03:39:53.854Z,1006.48
2023-02-02T03:40:53.575Z,1006.48
2023-02-02T03:41:53.542Z,1006.44
2023-02-02T03:42:53.515Z,1006.42
2023-02-02T03:43:53.532Z,1006.44
2023-02-02T03:44:53.497Z,1006.44
2023-02-02T03:45:53.524Z,1006.42
2023-02-02T03:46:53.498Z,1006.43
2023-02-02T03:47:53.482Z,1006.45
2023-02-02T03:48:53.456Z,1006.46
2023-02-02T03:49:53.466Z,1006.51
2023-02-02T03:50:53.452Z,1006.48
2023-02-02T03:51:53.459Z,1006.43
2023-02-02T03:52:53.416Z,1006.46
2023-02-02T03:53:53.438Z,1006.46
2023-02-02T03:54:53.436Z,1006.43
2023-02-02T03:55:53.431Z,1006.38
2023-02-02T03:56:53.382Z,1006.40
2023-02-02T03:57:53.401Z,1006.49
2023-02-02T03:58:53.383Z,1006.44
2023-02-02T03:59:53.364Z,1006.44
2023-02-02T04:00:53.343Z,1006.40
2023-02-02T04:01:53.375Z,1006.42
2023-02-02T04:02:53.361Z,1006.45
2023-02-02T04:03:53.350Z,1006.46
2023-02-02T04:04:53.319Z,1006.41
2023-02-02T04:05:53.337Z,1006.47
2023-02-02T04:06:53.274Z,1006.50
2023-02-02T04:07:53.307Z,1006.44
2023-02-02T04:08:53.266Z,1006.41
2023-02-02T04:09:53.284Z,1006.45
2023-02-02T04:10:53.246Z,1006.44
2023-02-02T04:11:53.220Z,1006.41
2023-02-02T04:12:53.226Z,1006.49
2023-02-02T04:13:53.256Z,1006.46
2023-02-02T04:14:53.212Z,1006.45
2023-02-02T04:15:53.253Z,1006.51
2023-02-02T04:16:53.198Z,1006.56
2023-02-02T04:17:53.187Z,1006.60
2023-02-02T04:18:53.175Z,1006.52
2023-02-02T04:19:53.215Z,1006.59
2023-02-02T04:20:53.136Z,1006.56
2023-02-02T04:21:53.144Z,1006.56
2023-02-02T04:22:53.121Z,1006.58
2023-02-02T04:23:53.147Z,1006.60
2023-02-02T04:24:53.118Z,1006.60
2023-02-02T04:25:53.108Z,1006.55
2023-02-02T04:26:53.143Z,1006.59
2023-02-02T04:27:53.092Z,1006.57
2023-02-02T04:28:53.052Z,1006.59
2023-02-02T04:29:53.082Z,1006.61
2023-02-02T04:30:53.092Z,1006.62
2023-02-02T04:31:53.112Z,1006.62
2023-02-02T04:32:53.002Z,1006.62
2023-02-02T04:33:53.020Z,1006.65
2023-02-02T04:34:53.036Z,1006.60
2023-02-02T04:35:52.994Z,1006.69
2023-02-02T04:36:53.020Z,1006.70
2023-02-02T04:37:52.974Z,1006.66
2023-02-02T04:38:52.952Z,1006.70
2023-02-02T04:39:52.974Z,1006.68
2023-02-02T04:40:53.011Z,1006.66
2023-02-02T04:41:52.942Z,1006.68
2023-02-02T04:42:52.922Z,1006.70
2023-02-02T04:43:52.931Z,1006.71
2023-02-02T04:44:52.899Z,1006.80
2023-02-02T04:45:53.024Z,1006.70
2023-02-02T04:46:52.886Z,1006.70
2023-02-02T04:47:52.889Z,1006.75
2023-02-02T04:48:52.868Z,1006.70
2023-02-02T04:49:52.858Z,1006.78
2023-02-02T04:50:52.870Z,1006.78
2023-02-02T04:51:52.864Z,1006.85
2023-02-02T04:52:52.805Z,1006.81
2023-02-02T04:53:52.817Z,1006.83
2023-02-02T04:54:52.799Z,1006.84
2023-02-02T04:55:52.832Z,1006.91
2023-02-02T04:56:52.782Z,1006.92
2023-02-02T04:57:52.760Z,1006.83
2023-02-02T04:58:52.766Z,1006.80
2023-02-02T04:59:52.738Z,1006.85
2023-02-02T05:00:52.775Z,1006.80
2023-02-02T05:01:52.767Z,1006.87
2023-02-02T05:02:52.720Z,1006.86
2023-02-02T05:03:52.710Z,1006.91
2023-02-02T05:04:52.684Z,1006.89
2023-02-02T05:05:52.718Z,1006.86
2023-02-02T05:06:52.686Z,1006.90
2023-02-02T05:07:52.669Z,1006.91
2023-02-02T05:08:52.671Z,1006.93
2023-02-02T05:09:52.652Z,1006.98
2023-02-02T05:10:52.649Z,1006.99
2023-02-02T05:11:52.628Z,1006.99
2023-02-02T05:12:52.612Z,1007.01
2023-02-02T05:13:52.625Z,1007.04
2023-02-02T05:14:52.595Z,1007.01
2023-02-02T05:15:52.607Z,1007.04
2023-02-02T05:16:52.614Z,1007.00
2023-02-02T05:17:52.580Z,1007.00
2023-02-02T05:18:52.553Z,1007.07
2023-02-02T05:19:52.546Z,1007.10
2023-02-02T05:20:52.540Z,1007.07
2023-02-02T05:21:52.518Z,1007.09
2023-02-02T05:22:52.514Z,1007.07
2023-02-02T05:23:52.502Z,1007.10
2023-02-02T05:24:52.498Z,1007.09
2023-02-02T05:25:52.540Z,1007.11
2023-02-02T05:26:52.569Z,1007.14
2023-02-02T05:27:52.459Z,1007.10
2023-02-02T05:28:52.457Z,1007.11
2023-02-02T05:29:52.442Z,1007.07
2023-02-02T05:30:52.463Z,1007.05
2023-02-02T05:31:52.442Z,1007.08
2023-02-02T05:32:52.441Z,1007.09
2023-02-02T05:33:52.415Z,1007.09
2023-02-02T05:34:52.411Z,1007.06
2023-02-02T05:35:52.369Z,1007.06
2023-02-02T05:36:52.375Z,1007.08
2023-02-02T05:37:52.372Z,1007.10
2023-02-02T05:38:52.367Z,1007.13
2023-02-02T05:39:52.375Z,1007.11
2023-02-02T05:40:52.335Z,1007.11
2023-02-02T05:41:52.313Z,1007.09
2023-02-02T05:42:52.303Z,1007.11
2023-02-02T05:43:52.306Z,1007.13
2023-02-02T05:44:52.323Z,1007.07
2023-02-02T05:45:52.324Z,1007.09
2023-02-02T05:46:52.292Z,1007.06
2023-02-02T05:47:52.250Z,1007.12
2023-02-02T05:48:52.256Z,1007.11
2023-02-02T05:49:52.265Z,1007.13
2023-02-02T05:50:52.246Z,1007.05
2023-02-02T05:51:52.216Z,1007.05
2023-02-02T05:52:52.240Z,1007.09
2023-02-02T05:53:52.199Z,1007.11
2023-02-02T05:54:52.210Z,1007.07
2023-02-02T05:55:52.196Z,1007.10
2023-02-02T05:56:52.198Z,1007.11
2023-02-02T05:57:52.155Z,1007.16
2023-02-02T05:58:52.143Z,1007.13
2023-02-02T05:59:52.159Z,1007.19
2023-02-02T06:00:52.116Z,1007.15
2023-02-02T06:01:52.131Z,1007.16
2023-02-02T06:02:52.150Z,1007.13
2023-02-02T06:03:52.240Z,1007.12
2023-02-02T06:04:52.123Z,1007.14
2023-02-02T06:05:52.102Z,1007.16
2023-02-02T06:06:52.080Z,1007.18
2023-02-02T06:07:52.080Z,1007.20
2023-02-02T06:08:52.048Z,1007.16
2023-02-02T06:09:52.026Z,1007.14
2023-02-02T06:10:52.074Z,1007.14
2023-02-02T06:11:52.019Z,1007.14
2023-02-02T06:12:52.017Z,1007.17
2023-02-02T06:13:51.991Z,1007.14
2023-02-02T06:14:51.988Z,1007.15
2023-02-02T06:15:52.112Z,1007.16
2023-02-02T06:16:52.025Z,1007.17
2023-02-02T06:17:51.935Z,1007.21
2023-02-02T06:18:51.948Z,1007.26
2023-02-02T06:19:51.931Z,1007.19
2023-02-02T06:20:51.934Z,1007.23
2023-02-02T06:21:51.913Z,1007.20
2023-02-02T06:22:51.913Z,1007.22
2023-02-02T06:23:51.890Z,1007.27
2023-02-02T06:24:51.896Z,1007.25
2023-02-02T06:25:51.874Z,1007.34
2023-02-02T06:26:51.910Z,1007.22
2023-02-02T06:27:51.844Z,1007.28
2023-02-02T06:28:51.850Z,1007.27
2023-02-02T06:29:51.850Z,1007.26
2023-02-02T06:30:51.910Z,1007.29
2023-02-02T06:31:51.955Z,1007.25
2023-02-02T06:32:51.818Z,1007.29
2023-02-02T06:33:51.786Z,1007.25
2023-02-02T06:34:51.796Z,1007.30
2023-02-02T06:35:51.766Z,1007.30
2023-02-02T06:36:51.800Z,1007.29
2023-02-02T06:37:51.754Z,1007.37
2023-02-02T06:38:51.763Z,1007.35
2023-02-02T06:39:51.716Z,1007.33
2023-02-02T06:40:51.751Z,1007.34
2023-02-02T06:41:51.701Z,1007.37
2023-02-02T06:42:51.721Z,1007.36
2023-02-02T06:43:51.693Z,1007.38
2023-02-02T06:44:51.696Z,1007.44
2023-02-02T06:45:51.656Z,1007.41
2023-02-02T06:46:51.671Z,1007.42
2023-02-02T06:47:51.673Z,1007.44
2023-02-02T06:48:51.644Z,1007.45
2023-02-02T06:49:51.626Z,1007.50
2023-02-02T06:50:51.631Z,1007.51
2023-02-02T06:51:51.598Z,1007.54
2023-02-02T06:52:51.629Z,1007.55
2023-02-02T06:53:51.618Z,1007.51
2023-02-02T06:54:51.579Z,1007.47
2023-02-02T06:55:51.571Z,1007.44
2023-02-02T06:56:51.551Z,1007.45
2023-02-02T06:57:51.541Z,1007.48
2023-02-02T06:58:51.589Z,1007.42
2023-02-02T06:59:51.507Z,1007.47
2023-02-02T07:00:51.520Z,1007.53
2023-02-02T07:01:51.522Z,1007.48
2023-02-02T07:02:51.561Z,1007.47
2023-02-02T07:03:51.545Z,1007.50
2023-02-02T07:04:51.502Z,1007.41
2023-02-02T07:05:51.474Z,1007.47
2023-02-02T07:06:51.463Z,1007.49
2023-02-02T07:07:51.469Z,1007.46
2023-02-02T07:08:57.657Z,1007.51
2023-02-02T07:09:58.324Z,1007.51
2023-02-02T07:11:12.477Z,1007.52
2023-02-02T07:11:52.400Z,1007.48
2023-02-02T07:12:51.423Z,1007.46
2023-02-02T07:13:51.383Z,1007.52
2023-02-02T07:14:51.403Z,1007.44
2023-02-02T07:15:51.427Z,1007.49
2023-02-02T07:16:51.362Z,1007.44
2023-02-02T07:17:51.345Z,1007.48
2023-02-02T07:18:51.339Z,1007.42
2023-02-02T07:19:51.354Z,1007.43
2023-02-02T07:20:51.315Z,1007.42
2023-02-02T07:21:51.302Z,1007.40
2023-02-02T07:22:51.320Z,1007.35
2023-02-02T07:23:51.273Z,1007.33
2023-02-02T07:24:51.318Z,1007.34
2023-02-02T07:25:51.272Z,1007.37
2023-02-02T07:26:51.328Z,1007.36
2023-02-02T07:27:51.250Z,1007.40
2023-02-02T07:28:51.241Z,1007.45
2023-02-02T07:29:51.248Z,1007.44
2023-02-02T07:30:51.307Z,1007.46
2023-02-02T07:31:51.280Z,1007.49
2023-02-02T07:32:51.227Z,1007.46
2023-02-02T07:33:51.187Z,1007.46
2023-02-02T07:34:51.187Z,1007.46
2023-02-02T07:35:51.187Z,1007.47
2023-02-02T07:36:51.144Z,1007.50
2023-02-02T07:37:51.154Z,1007.50
2023-02-02T07:38:51.145Z,1007.54
2023-02-02T07:39:51.138Z,1007.53
2023-02-02T07:40:51.133Z,1007.56
2023-02-02T07:41:51.126Z,1007.52
2023-02-02T07:42:51.112Z,1007.51
2023-02-02T07:43:51.078Z,1007.58
2023-02-02T07:44:51.094Z,1007.64
2023-02-02T07:45:51.054Z,1007.62
2023-02-02T07:46:51.126Z,1007.67
2023-02-02T07:47:51.022Z,1007.63
2023-02-02T07:48:51.053Z,1007.67
2023-02-02T07:49:51.034Z,1007.66
2023-02-02T07:50:51.020Z,1007.69
2023-02-02T07:51:51.035Z,1007.68
2023-02-02T07:52:50.996Z,1007.74
2023-02-02T07:53:50.990Z,1007.68
2023-02-02T07:54:50.993Z,1007.73
2023-02-02T07:55:50.963Z,1007.78
2023-02-02T07:56:50.978Z,1007.77
2023-02-02T07:57:50.937Z,1007.74
2023-02-02T07:58:50.942Z,1007.73
2023-02-02T07:59:50.921Z,1007.76
2023-02-02T08:00:50.953Z,1007.78
2023-02-02T08:01:50.923Z,1007.78
2023-02-02T08:02:50.952Z,1007.82
2023-02-02T08:03:50.956Z,1007.80
2023-02-02T08:04:50.885Z,1007.89
2023-02-02T08:05:50.875Z,1007.86
2023-02-02T08:06:50.869Z,1007.85
2023-02-02T08:07:50.856Z,1007.79
2023-02-02T08:08:50.852Z,1007.75
2023-02-02T08:09:50.817Z,1007.73
2023-02-02T08:10:50.825Z,1007.76
2023-02-02T08:11:50.797Z,1007.84
2023-02-02T08:12:50.828Z,1007.79
2023-02-02T08:13:50.781Z,1007.86
2023-02-02T08:14:50.772Z,1007.88
2023-02-02T08:15:50.790Z,1007.88
2023-02-02T08:16:50.755Z,1007.83
2023-02-02T08:17:50.752Z,1007.84
2023-02-02T08:18:50.751Z,1007.87
2023-02-02T08:19:50.740Z,1007.83
2023-02-02T08:20:50.734Z,1007.85
2023-02-02T08:21:50.701Z,1007.77
2023-02-02T08:22:50.693Z,1007.84
2023-02-02T08:23:50.702Z,1007.88
2023-02-02T08:24:50.667Z,1007.83
2023-02-02T08:25:50.677Z,1007.89
2023-02-02T08:26:50.677Z,1007.83
2023-02-02T08:27:50.630Z,1007.92
2023-02-02T08:28:50.676Z,1007.86
2023-02-02T08:29:50.605Z,1007.95
2023-02-02T08:30:50.641Z,1007.93
2023-02-02T08:31:50.668Z,1007.89
2023-02-02T08:32:50.773Z,1007.95
2023-02-02T08:33:50.609Z,1007.94
2023-02-02T08:34:50.571Z,1008.04
2023-02-02T08:35:50.553Z,1007.98
2023-02-02T08:36:50.582Z,1008.06
2023-02-02T08:37:50.534Z,1008.01
2023-02-02T08:38:50.543Z,1007.99
2023-02-02T08:39:50.544Z,1008.03
2023-02-02T08:40:50.520Z,1008.02
2023-02-02T08:41:50.532Z,1007.97
2023-02-02T08:42:50.524Z,1007.91
2023-02-02T08:43:50.475Z,1007.96
2023-02-02T08:46:04.114Z,1008.03
2023-02-02T08:46:04.264Z,1007.96
2023-02-02T08:46:51.488Z,1008.03
2023-02-02T08:47:58.891Z,1008.05
2023-02-02T08:48:51.431Z,1007.93
2023-02-02T08:49:50.453Z,1008.00
2023-02-02T08:50:50.413Z,1007.97
2023-02-02T08:51:50.412Z,1007.99
2023-02-02T08:52:50.438Z,1008.01
2023-02-02T08:53:50.427Z,1007.97
2023-02-02T08:54:50.408Z,1008.01
2023-02-02T08:55:50.351Z,1007.98
2023-02-02T08:56:50.361Z,1008.04
2023-02-02T08:57:50.326Z,1007.98
2023-02-02T08:58:50.361Z,1007.94
2023-02-02T08:59:50.312Z,1008.03
2023-02-02T09:00:50.380Z,1008.05
2023-02-02T09:01:50.299Z,1008.09
2023-02-02T09:02:50.281Z,1008.01
2023-02-02T09:03:50.283Z,1008.08
2023-02-02T09:04:50.261Z,1008.06
2023-02-02T09:05:50.257Z,1008.09
2023-02-02T09:06:50.264Z,1008.09
2023-02-02T09:07:50.214Z,1008.11
2023-02-02T09:08:50.271Z,1008.05
2023-02-02T09:09:50.201Z,1008.06
2023-02-02T09:10:50.255Z,1007.99
2023-02-02T09:11:50.195Z,1008.09
2023-02-02T09:12:50.185Z,1008.16
2023-02-02T09:13:50.168Z,1008.09
2023-02-02T09:14:50.162Z,1008.10
2023-02-02T09:15:50.146Z,1008.12
2023-02-02T09:16:50.244Z,1008.14
2023-02-02T09:17:50.135Z,1008.20
2023-02-02T09:18:50.129Z,1008.17
2023-02-02T09:19:50.082Z,1008.20
2023-02-02T09:20:50.114Z,1008.26
2023-02-02T09:21:50.076Z,1008.19
2023-02-02T09:22:50.106Z,1008.23
2023-02-02T09:23:50.065Z,1008.21
2023-02-02T09:24:50.073Z,1008.20
2023-02-02T09:25:50.049Z,1008.19
2023-02-02T09:26:50.063Z,1008.17
2023-02-02T09:27:50.033Z,1008.24
2023-02-02T09:28:50.053Z,1008.30
2023-02-02T09:29:50.011Z,1008.26
2023-02-02T09:30:50.102Z,1008.24
2023-02-02T09:31:50.010Z,1008.28
2023-02-02T09:32:50.003Z,1008.27
2023-02-02T09:33:49.993Z,1008.30
2023-02-02T09:34:49.960Z,1008.28
2023-02-02T09:35:49.941Z,1008.34
2023-02-02T09:36:49.953Z,1008.41
2023-02-02T09:37:49.934Z,1008.37
2023-02-02T09:38:49.967Z,1008.33
2023-02-02T09:39:49.900Z,1008.36
2023-02-02T09:40:49.910Z,1008.36
2023-02-02T09:41:49.861Z,1008.35
2023-02-02T09:42:49.911Z,1008.46
2023-02-02T09:43:49.868Z,1008.42
2023-02-02T09:44:49.871Z,1008.43
2023-02-02T09:45:49.904Z,1008.44
2023-02-02T09:46:49.822Z,1008.42
2023-02-02T09:47:49.829Z,1008.42
2023-02-02T09:48:49.806Z,1008.40
2023-02-02T09:49:49.831Z,1008.47
2023-02-02T09:50:49.886Z,1008.46
2023-02-02T09:51:49.791Z,1008.47
2023-02-02T09:52:49.755Z,1008.59
2023-02-02T09:53:55.461Z,1008.53
2023-02-02T09:54:50.824Z,1008.55
2023-02-02T09:55:49.759Z,1008.52
2023-02-02T09:56:49.764Z,1008.54
2023-02-02T09:57:49.768Z,1008.53
2023-02-02T09:58:49.710Z,1008.48
2023-02-02T09:59:49.706Z,1008.56
2023-02-02T10:00:49.716Z,1008.62
2023-02-02T10:01:49.701Z,1008.54
2023-02-02T10:02:49.693Z,1008.58
2023-02-02T10:03:49.711Z,1008.60
2023-02-02T10:04:49.638Z,1008.55
2023-02-02T10:05:49.655Z,1008.60
2023-02-02T10:06:49.695Z,1008.53
2023-02-02T10:07:49.624Z,1008.56
2023-02-02T10:08:49.602Z,1008.63
2023-02-02T10:09:49.622Z,1008.62
2023-02-02T10:10:49.612Z,1008.64
2023-02-02T10:11:49.596Z,1008.61
2023-02-02T10:12:49.580Z,1008.70
2023-02-02T10:13:49.566Z,1008.69
2023-02-02T10:14:49.569Z,1008.69
2023-02-02T10:15:49.622Z,1008.69
2023-02-02T10:16:49.513Z,1008.63
2023-02-02T10:17:49.531Z,1008.69
2023-02-02T10:18:49.497Z,1008.67
2023-02-02T10:19:49.518Z,1008.72
2023-02-02T10:20:49.522Z,1008.77
2023-02-02T10:21:49.488Z,1008.75
2023-02-02T10:22:49.499Z,1008.78
2023-02-02T10:23:49.464Z,1008.68
2023-02-02T10:24:49.443Z,1008.74
2023-02-02T10:25:49.478Z,1008.71
2023-02-02T10:26:49.482Z,1008.75
2023-02-02T10:27:49.429Z,1008.80
2023-02-02T10:28:49.396Z,1008.82
2023-02-02T10:29:49.635Z,1008.81
2023-02-02T10:30:49.711Z,1008.84
2023-02-02T10:31:49.702Z,1008.89
2023-02-02T10:32:49.393Z,1008.82
2023-02-02T10:33:49.365Z,1008.89
2023-02-02T10:34:49.333Z,1008.91
2023-02-02T10:35:49.356Z,1008.92
2023-02-02T10:36:49.320Z,1008.91
2023-02-02T10:37:49.331Z,1008.87
2023-02-02T10:38:49.296Z,1008.94
2023-02-02T10:39:49.316Z,1008.92
2023-02-02T10:40:49.282Z,1009.01
2023-02-02T10:41:49.288Z,1008.97
2023-02-02T10:42:49.254Z,1008.97
2023-02-02T10:43:49.269Z,1008.90
2023-02-02T10:44:49.265Z,1008.92
2023-02-02T10:45:49.288Z,1008.92
2023-02-02T10:46:49.252Z,1008.99
2023-02-02T10:47:49.214Z,1008.94
2023-02-02T10:48:49.217Z,1009.05
2023-02-02T10:49:53.760Z,1009.03
2023-02-02T10:50:50.232Z,1009.03
2023-02-02T10:51:49.195Z,1009.03
2023-02-02T10:52:49.160Z,1008.99
2023-02-02T10:53:49.162Z,1009.06
2023-02-02T10:54:56.472Z,1009.08
2023-02-02T10:55:50.173Z,1009.04
2023-02-02T10:56:49.144Z,1008.98
2023-02-02T10:57:49.111Z,1009.03
2023-02-02T10:58:49.114Z,1008.99
2023-02-02T10:59:49.096Z,1008.89
2023-02-02T11:00:49.081Z,1008.95
2023-02-02T11:01:49.116Z,1008.86
2023-02-02T11:02:49.107Z,1008.95
2023-02-02T11:03:49.065Z,1008.92
2023-02-02T11:04:49.036Z,1008.88
2023-02-02T11:05:49.052Z,1008.91
2023-02-02T11:06:49.043Z,1008.91
2023-02-02T11:07:49.048Z,1008.96
2023-02-02T11:08:48.988Z,1008.97
2023-02-02T11:09:49.011Z,1008.93
2023-02-02T11:10:49.014Z,1008.91
2023-02-02T11:11:48.996Z,1008.95
2023-02-02T11:12:48.981Z,1008.90
2023-02-02T11:13:48.940Z,1008.98
2023-02-02T11:14:48.942Z,1008.93
2023-02-02T11:15:48.996Z,1008.97
2023-02-02T11:16:49.067Z,1009.02
2023-02-02T11:17:48.927Z,1008.95
2023-02-02T11:18:48.890Z,1008.98
2023-02-02T11:19:48.901Z,1008.97
2023-02-02T11:20:48.878Z,1008.93
2023-02-02T11:21:49.070Z,1008.94
2023-02-02T11:22:48.874Z,1008.93
2023-02-02T11:23:48.925Z,1008.90
2023-02-02T11:24:48.830Z,1008.96
2023-02-02T11:25:48.818Z,1008.92
2023-02-02T11:26:48.940Z,1008.94
2023-02-02T11:27:48.860Z,1008.91
2023-02-02T11:28:48.817Z,1008.91
2023-02-02T11:29:48.805Z,1008.95
2023-02-02T11:30:48.886Z,1008.96
2023-02-02T11:31:48.859Z,1008.90
2023-02-02T11:32:48.772Z,1008.87
2023-02-02T11:33:48.760Z,1008.89
2023-02-02T11:34:48.768Z,1008.85
2023-02-02T11:35:48.759Z,1008.86
2023-02-02T11:36:48.729Z,1008.89
2023-02-02T11:37:48.715Z,1008.87
2023-02-02T11:38:48.706Z,1008.85
2023-02-02T11:39:48.688Z,1008.89
2023-02-02T11:40:48.668Z,1008.89
2023-02-02T11:41:48.667Z,1008.91
2023-02-02T11:42:48.665Z,1008.88
2023-02-02T11:43:48.681Z,1008.91
2023-02-02T11:44:48.634Z,1008.84
2023-02-02T11:45:48.643Z,1008.84
2023-02-02T11:46:48.662Z,1008.86
2023-02-02T11:47:48.625Z,1008.87
2023-02-02T11:48:48.624Z,1008.88
2023-02-02T11:49:49.778Z,1008.86
2023-02-02T11:50:48.655Z,1008.84
2023-02-02T11:51:48.575Z,1008.82
2023-02-02T11:52:48.536Z,1008.74
2023-02-02T11:53:48.608Z,1008.83
2023-02-02T11:54:48.525Z,1008.78
2023-02-02T11:55:48.513Z,1008.85
2023-02-02T11:56:48.536Z,1008.84
2023-02-02T11:57:48.490Z,1008.81
2023-02-02T11:58:48.552Z,1008.75
2023-02-02T11:59:48.478Z,1008.85
2023-02-02T12:00:48.476Z,1008.80
2023-02-02T12:01:48.493Z,1008.84
2023-02-02T12:02:48.451Z,1008.88
2023-02-02T12:03:48.543Z,1008.90
2023-02-02T12:04:48.415Z,1008.90
2023-02-02T12:05:48.430Z,1008.85